sensor_id;sensor_type;location;lat;lon;timestamp;temperature;humidity
11848;DHT22;5983;49.966;8.052;2022-09-09T00:02:01;16.70;99.90
11848;DHT22;5983;49.966;8.052;2022-09-09T00:04:34;16.60;99.90
11848;DHT22;5983;49.966;8.052;2022-09-09T00:07:06;16.60;99.90
11848;DHT22;5983;49.966;8.052;2022-09-09T00:09:44;16.60;99.90
11848;DHT22;5983;49.966;8.052;2022-09-09T00:12:20;16.60;99.90
11848;DHT22;5983;49.966;8.052;2022-09-09T00:14:55;16.60;99.90
11848;DHT22;5983;49.966;8.052;2022-09-09T00:17:32;16.60;99.90
11848;DHT22;5983;49.966;8.052;2022-09-09T00:20:12;16.50;99.90
11848;DHT22;5983;49.966;8.052;2022-09-09T00:22:47;16.50;99.90
11848;DHT22;5983;49.966;8.052;2022-09-09T00:25:26;16.40;99.90
11848;DHT22;5983;49.966;8.052;2022-09-09T00:28:00;16.40;99.90
11848;DHT22;5983;49.966;8.052;2022-09-09T00:30:32;16.40;99.90
11848;DHT22;5983;49.966;8.052;2022-09-09T00:33:09;16.40;99.90
11848;DHT22;5983;49.966;8.052;2022-09-09T00:35:44;16.40;99.90
11848;DHT22;5983;49.966;8.052;2022-09-09T00:38:18;16.40;99.90
11848;DHT22;5983;49.966;8.052;2022-09-09T00:40:52;16.30;99.90
11848;DHT22;5983;49.966;8.052;2022-09-09T00:43:27;16.30;99.90
11848;DHT22;5983;49.966;8.052;2022-09-09T00:46:21;16.20;99.90
11848;DHT22;5983;49.966;8.052;2022-09-09T00:49:22;16.20;99.90
11848;DHT22;5983;49.966;8.052;2022-09-09T00:52:04;16.20;99.90
11848;DHT22;5983;49.966;8.052;2022-09-09T00:54:49;16.10;99.90
11848;DHT22;5983;49.966;8.052;2022-09-09T00:57:26;16.10;99.90
11848;DHT22;5983;49.966;8.052;2022-09-09T01:00:16;16.00;99.90
11848;DHT22;5983;49.966;8.052;2022-09-09T01:02:53;16.00;99.90
11848;DHT22;5983;49.966;8.052;2022-09-09T01:05:37;16.00;99.90
11848;DHT22;5983;49.966;8.052;2022-09-09T01:08:17;16.00;99.90
11848;DHT22;5983;49.966;8.052;2022-09-09T01:11:00;15.90;99.90
11848;DHT22;5983;49.966;8.052;2022-09-09T01:13:30;15.90;99.90
11848;DHT22;5983;49.966;8.052;2022-09-09T01:16:02;15.80;99.90
11848;DHT22;5983;49.966;8.052;2022-09-09T01:18:35;15.70;99.90
11848;DHT22;5983;49.966;8.052;2022-09-09T01:21:15;15.70;99.90
11848;DHT22;5983;49.966;8.052;2022-09-09T01:24:14;15.70;99.90
11848;DHT22;5983;49.966;8.052;2022-09-09T01:26:51;15.70;99.90
11848;DHT22;5983;49.966;8.052;2022-09-09T01:29:21;15.60;99.90
11848;DHT22;5983;49.966;8.052;2022-09-09T01:31:56;15.60;99.90
11848;DHT22;5983;49.966;8.052;2022-09-09T01:34:26;15.60;99.90
11848;DHT22;5983;49.966;8.052;2022-09-09T01:36:59;15.50;99.90
11848;DHT22;5983;49.966;8.052;2022-09-09T01:39:30;15.60;99.90
11848;DHT22;5983;49.966;8.052;2022-09-09T01:41:59;15.60;99.90
11848;DHT22;5983;49.966;8.052;2022-09-09T01:44:28;15.70;99.90
11848;DHT22;5983;49.966;8.052;2022-09-09T01:46:56;15.70;99.90
11848;DHT22;5983;49.966;8.052;2022-09-09T01:49:26;15.70;99.90
11848;DHT22;5983;49.966;8.052;2022-09-09T01:51:56;15.70;99.90
11848;DHT22;5983;49.966;8.052;2022-09-09T01:54:27;15.60;99.90
11848;DHT22;5983;49.966;8.052;2022-09-09T01:57:06;15.60;99.90
11848;DHT22;5983;49.966;8.052;2022-09-09T01:59:48;15.50;99.90
11848;DHT22;5983;49.966;8.052;2022-09-09T02:02:22;15.50;99.90
11848;DHT22;5983;49.966;8.052;2022-09-09T02:04:57;15.50;99.90
11848;DHT22;5983;49.966;8.052;2022-09-09T02:07:38;15.60;99.90
11848;DHT22;5983;49.966;8.052;2022-09-09T02:10:10;15.60;99.90
11848;DHT22;5983;49.966;8.052;2022-09-09T02:12:46;15.60;99.90
11848;DHT22;5983;49.966;8.052;2022-09-09T02:15:21;15.60;99.90
11848;DHT22;5983;49.966;8.052;2022-09-09T02:17:57;15.70;99.90
11848;DHT22;5983;49.966;8.052;2022-09-09T02:20:29;15.60;99.90
11848;DHT22;5983;49.966;8.052;2022-09-09T02:22:59;15.60;99.90
11848;DHT22;5983;49.966;8.052;2022-09-09T02:25:29;15.50;99.90
11848;DHT22;5983;49.966;8.052;2022-09-09T02:27:57;15.50;99.90
11848;DHT22;5983;49.966;8.052;2022-09-09T02:30:27;15.50;99.90
11848;DHT22;5983;49.966;8.052;2022-09-09T02:32:57;15.50;99.90
11848;DHT22;5983;49.966;8.052;2022-09-09T02:35:28;15.40;99.90
11848;DHT22;5983;49.966;8.052;2022-09-09T02:37:59;15.30;99.90
11848;DHT22;5983;49.966;8.052;2022-09-09T02:40:30;15.40;99.90
11848;DHT22;5983;49.966;8.052;2022-09-09T02:42:58;15.40;99.90
11848;DHT22;5983;49.966;8.052;2022-09-09T02:45:31;15.30;99.90
11848;DHT22;5983;49.966;8.052;2022-09-09T02:48:10;15.30;99.90
11848;DHT22;5983;49.966;8.052;2022-09-09T02:50:48;15.40;99.90
11848;DHT22;5983;49.966;8.052;2022-09-09T02:53:26;15.40;99.90
11848;DHT22;5983;49.966;8.052;2022-09-09T02:55:59;15.40;99.90
11848;DHT22;5983;49.966;8.052;2022-09-09T02:58:32;15.40;99.90
11848;DHT22;5983;49.966;8.052;2022-09-09T03:00:59;15.40;99.90
11848;DHT22;5983;49.966;8.052;2022-09-09T03:03:28;15.40;99.90
11848;DHT22;5983;49.966;8.052;2022-09-09T03:05:55;15.40;99.90
11848;DHT22;5983;49.966;8.052;2022-09-09T03:08:23;15.30;99.90
11848;DHT22;5983;49.966;8.052;2022-09-09T03:10:50;15.30;99.90
11848;DHT22;5983;49.966;8.052;2022-09-09T03:13:19;15.40;99.90
11848;DHT22;5983;49.966;8.052;2022-09-09T03:15:48;15.40;99.90
11848;DHT22;5983;49.966;8.052;2022-09-09T03:18:17;15.40;99.90
11848;DHT22;5983;49.966;8.052;2022-09-09T03:20:44;15.40;99.90
11848;DHT22;5983;49.966;8.052;2022-09-09T03:23:14;15.30;99.90
11848;DHT22;5983;49.966;8.052;2022-09-09T03:25:46;15.30;99.90
11848;DHT22;5983;49.966;8.052;2022-09-09T03:28:14;15.30;99.90
11848;DHT22;5983;49.966;8.052;2022-09-09T03:30:41;15.30;99.90
11848;DHT22;5983;49.966;8.052;2022-09-09T03:33:10;15.20;99.90
11848;DHT22;5983;49.966;8.052;2022-09-09T03:35:37;15.20;99.90
11848;DHT22;5983;49.966;8.052;2022-09-09T03:38:05;15.20;99.90
11848;DHT22;5983;49.966;8.052;2022-09-09T03:40:31;15.10;99.90
11848;DHT22;5983;49.966;8.052;2022-09-09T03:42:58;15.10;99.90
11848;DHT22;5983;49.966;8.052;2022-09-09T03:45:25;15.20;99.90
11848;DHT22;5983;49.966;8.052;2022-09-09T03:47:52;15.10;99.90
11848;DHT22;5983;49.966;8.052;2022-09-09T03:50:21;15.10;99.90
11848;DHT22;5983;49.966;8.052;2022-09-09T03:52:48;15.10;99.90
11848;DHT22;5983;49.966;8.052;2022-09-09T03:55:15;15.10;99.90
11848;DHT22;5983;49.966;8.052;2022-09-09T03:57:42;15.10;99.90
11848;DHT22;5983;49.966;8.052;2022-09-09T04:00:10;15.10;99.90
11848;DHT22;5983;49.966;8.052;2022-09-09T04:02:37;15.10;99.90
11848;DHT22;5983;49.966;8.052;2022-09-09T04:05:05;15.20;99.90
11848;DHT22;5983;49.966;8.052;2022-09-09T04:07:34;15.10;99.90
11848;DHT22;5983;49.966;8.052;2022-09-09T04:10:00;15.10;99.90
11848;DHT22;5983;49.966;8.052;2022-09-09T04:12:27;15.10;99.90
11848;DHT22;5983;49.966;8.052;2022-09-09T04:14:54;15.20;99.90
11848;DHT22;5983;49.966;8.052;2022-09-09T04:17:22;15.30;99.90
11848;DHT22;5983;49.966;8.052;2022-09-09T04:19:49;15.30;99.90
11848;DHT22;5983;49.966;8.052;2022-09-09T04:22:16;15.30;99.90
11848;DHT22;5983;49.966;8.052;2022-09-09T04:24:44;15.30;99.90
11848;DHT22;5983;49.966;8.052;2022-09-09T04:27:11;15.30;99.90
11848;DHT22;5983;49.966;8.052;2022-09-09T04:29:38;15.30;99.90
11848;DHT22;5983;49.966;8.052;2022-09-09T04:32:05;15.30;99.90
11848;DHT22;5983;49.966;8.052;2022-09-09T04:34:31;15.30;99.90
11848;DHT22;5983;49.966;8.052;2022-09-09T04:36:58;15.20;99.90
11848;DHT22;5983;49.966;8.052;2022-09-09T04:39:25;15.20;99.90
11848;DHT22;5983;49.966;8.052;2022-09-09T04:41:53;15.30;99.90
11848;DHT22;5983;49.966;8.052;2022-09-09T04:44:20;15.30;99.90
11848;DHT22;5983;49.966;8.052;2022-09-09T04:46:47;15.30;99.90
11848;DHT22;5983;49.966;8.052;2022-09-09T04:49:14;15.20;99.90
11848;DHT22;5983;49.966;8.052;2022-09-09T04:51:41;15.10;99.90
11848;DHT22;5983;49.966;8.052;2022-09-09T04:54:08;15.10;99.90
11848;DHT22;5983;49.966;8.052;2022-09-09T04:56:35;15.10;99.90
11848;DHT22;5983;49.966;8.052;2022-09-09T04:59:04;15.10;99.90
11848;DHT22;5983;49.966;8.052;2022-09-09T05:01:31;15.10;99.90
11848;DHT22;5983;49.966;8.052;2022-09-09T05:03:58;15.10;99.90
11848;DHT22;5983;49.966;8.052;2022-09-09T05:06:24;15.10;99.90
11848;DHT22;5983;49.966;8.052;2022-09-09T05:08:51;14.90;99.90
11848;DHT22;5983;49.966;8.052;2022-09-09T05:11:20;14.90;99.90
11848;DHT22;5983;49.966;8.052;2022-09-09T05:13:50;14.90;99.90
11848;DHT22;5983;49.966;8.052;2022-09-09T05:16:19;14.90;99.90
11848;DHT22;5983;49.966;8.052;2022-09-09T05:18:46;14.90;99.90
11848;DHT22;5983;49.966;8.052;2022-09-09T05:21:15;14.90;99.90
11848;DHT22;5983;49.966;8.052;2022-09-09T05:23:44;14.90;99.90
11848;DHT22;5983;49.966;8.052;2022-09-09T05:26:14;15.00;99.90
11848;DHT22;5983;49.966;8.052;2022-09-09T05:28:42;15.00;99.90
11848;DHT22;5983;49.966;8.052;2022-09-09T05:31:10;15.00;99.90
11848;DHT22;5983;49.966;8.052;2022-09-09T05:33:41;15.10;99.90
11848;DHT22;5983;49.966;8.052;2022-09-09T05:36:12;15.20;99.90
11848;DHT22;5983;49.966;8.052;2022-09-09T05:38:41;15.30;99.90
11848;DHT22;5983;49.966;8.052;2022-09-09T05:41:08;15.50;99.90
11848;DHT22;5983;49.966;8.052;2022-09-09T05:43:36;15.60;99.90
11848;DHT22;5983;49.966;8.052;2022-09-09T05:46:05;15.70;99.90
11848;DHT22;5983;49.966;8.052;2022-09-09T05:48:35;15.80;99.90
11848;DHT22;5983;49.966;8.052;2022-09-09T05:51:05;16.00;99.90
11848;DHT22;5983;49.966;8.052;2022-09-09T05:53:37;16.20;99.90
11848;DHT22;5983;49.966;8.052;2022-09-09T05:56:05;16.20;99.90
11848;DHT22;5983;49.966;8.052;2022-09-09T05:58:36;16.20;99.90
11848;DHT22;5983;49.966;8.052;2022-09-09T06:01:05;16.30;99.90
11848;DHT22;5983;49.966;8.052;2022-09-09T06:03:34;16.40;99.90
11848;DHT22;5983;49.966;8.052;2022-09-09T06:06:08;16.60;99.90
11848;DHT22;5983;49.966;8.052;2022-09-09T06:08:38;16.60;99.90
11848;DHT22;5983;49.966;8.052;2022-09-09T06:11:15;16.60;99.90
11848;DHT22;5983;49.966;8.052;2022-09-09T06:13:43;16.60;99.90
11848;DHT22;5983;49.966;8.052;2022-09-09T06:16:14;16.70;99.90
11848;DHT22;5983;49.966;8.052;2022-09-09T06:18:45;16.70;99.90
11848;DHT22;5983;49.966;8.052;2022-09-09T06:21:17;16.80;99.90
11848;DHT22;5983;49.966;8.052;2022-09-09T06:23:45;16.80;99.90
11848;DHT22;5983;49.966;8.052;2022-09-09T06:26:16;16.90;99.90
11848;DHT22;5983;49.966;8.052;2022-09-09T06:28:45;16.90;99.90
11848;DHT22;5983;49.966;8.052;2022-09-09T06:31:15;16.90;99.90
11848;DHT22;5983;49.966;8.052;2022-09-09T06:33:48;16.80;99.90
11848;DHT22;5983;49.966;8.052;2022-09-09T06:36:21;16.80;99.90
11848;DHT22;5983;49.966;8.052;2022-09-09T06:38:50;16.70;99.90
11848;DHT22;5983;49.966;8.052;2022-09-09T06:41:22;16.70;99.90
11848;DHT22;5983;49.966;8.052;2022-09-09T06:43:51;16.80;99.90
11848;DHT22;5983;49.966;8.052;2022-09-09T06:46:19;17.00;99.90
11848;DHT22;5983;49.966;8.052;2022-09-09T06:48:48;17.30;99.90
11848;DHT22;5983;49.966;8.052;2022-09-09T06:51:16;17.70;99.90
11848;DHT22;5983;49.966;8.052;2022-09-09T06:53:47;18.10;99.90
11848;DHT22;5983;49.966;8.052;2022-09-09T06:56:24;18.40;99.90
11848;DHT22;5983;49.966;8.052;2022-09-09T06:58:54;18.50;99.90
11848;DHT22;5983;49.966;8.052;2022-09-09T07:01:25;18.60;99.90
11848;DHT22;5983;49.966;8.052;2022-09-09T07:03:54;18.80;99.90
11848;DHT22;5983;49.966;8.052;2022-09-09T07:06:26;19.10;99.90
11848;DHT22;5983;49.966;8.052;2022-09-09T07:08:57;19.50;99.90
11848;DHT22;5983;49.966;8.052;2022-09-09T07:11:28;19.80;99.90
11848;DHT22;5983;49.966;8.052;2022-09-09T07:13:58;20.00;99.90
11848;DHT22;5983;49.966;8.052;2022-09-09T07:16:26;20.10;99.90
11848;DHT22;5983;49.966;8.052;2022-09-09T07:18:54;20.10;99.90
11848;DHT22;5983;49.966;8.052;2022-09-09T07:21:24;20.00;99.90
11848;DHT22;5983;49.966;8.052;2022-09-09T07:23:53;19.80;99.90
11848;DHT22;5983;49.966;8.052;2022-09-09T07:26:23;19.70;99.90
11848;DHT22;5983;49.966;8.052;2022-09-09T07:28:52;19.50;99.90
11848;DHT22;5983;49.966;8.052;2022-09-09T07:31:23;19.40;99.90
11848;DHT22;5983;49.966;8.052;2022-09-09T07:33:52;19.30;99.90
11848;DHT22;5983;49.966;8.052;2022-09-09T07:36:21;19.20;99.90
11848;DHT22;5983;49.966;8.052;2022-09-09T07:38:53;19.10;99.90
11848;DHT22;5983;49.966;8.052;2022-09-09T07:41:25;19.10;99.90
11848;DHT22;5983;49.966;8.052;2022-09-09T07:43:53;19.00;99.90
11848;DHT22;5983;49.966;8.052;2022-09-09T07:46:22;19.10;99.90
11848;DHT22;5983;49.966;8.052;2022-09-09T07:48:52;19.20;99.90
11848;DHT22;5983;49.966;8.052;2022-09-09T07:51:24;19.20;99.90
11848;DHT22;5983;49.966;8.052;2022-09-09T07:53:54;19.30;99.90
11848;DHT22;5983;49.966;8.052;2022-09-09T07:56:25;19.30;99.90
11848;DHT22;5983;49.966;8.052;2022-09-09T07:58:54;19.20;99.90
11848;DHT22;5983;49.966;8.052;2022-09-09T08:01:24;19.20;99.90
11848;DHT22;5983;49.966;8.052;2022-09-09T08:04:02;19.20;99.90
11848;DHT22;5983;49.966;8.052;2022-09-09T08:06:35;19.20;99.90
11848;DHT22;5983;49.966;8.052;2022-09-09T08:09:04;19.20;99.90
11848;DHT22;5983;49.966;8.052;2022-09-09T08:11:34;19.10;99.90
11848;DHT22;5983;49.966;8.052;2022-09-09T08:14:03;19.00;99.90
11848;DHT22;5983;49.966;8.052;2022-09-09T08:16:33;19.10;99.90
11848;DHT22;5983;49.966;8.052;2022-09-09T08:19:06;19.20;99.90
11848;DHT22;5983;49.966;8.052;2022-09-09T08:21:36;19.30;99.90
11848;DHT22;5983;49.966;8.052;2022-09-09T08:24:07;19.50;99.90
11848;DHT22;5983;49.966;8.052;2022-09-09T08:26:38;19.60;99.90
11848;DHT22;5983;49.966;8.052;2022-09-09T08:29:08;19.60;99.90
11848;DHT22;5983;49.966;8.052;2022-09-09T08:31:38;19.50;99.90
11848;DHT22;5983;49.966;8.052;2022-09-09T08:34:07;19.40;99.90
11848;DHT22;5983;49.966;8.052;2022-09-09T08:36:37;19.30;99.90
11848;DHT22;5983;49.966;8.052;2022-09-09T08:39:06;19.30;99.90
11848;DHT22;5983;49.966;8.052;2022-09-09T08:41:50;19.30;99.90
11848;DHT22;5983;49.966;8.052;2022-09-09T08:44:54;19.30;99.90
11848;DHT22;5983;49.966;8.052;2022-09-09T08:47:35;19.40;99.90
11848;DHT22;5983;49.966;8.052;2022-09-09T08:50:21;19.40;99.90
11848;DHT22;5983;49.966;8.052;2022-09-09T08:52:56;19.30;99.90
11848;DHT22;5983;49.966;8.052;2022-09-09T08:55:38;19.40;99.90
11848;DHT22;5983;49.966;8.052;2022-09-09T08:58:13;19.60;99.90
11848;DHT22;5983;49.966;8.052;2022-09-09T09:01:02;19.90;99.90
11848;DHT22;5983;49.966;8.052;2022-09-09T09:03:49;20.00;99.90
11848;DHT22;5983;49.966;8.052;2022-09-09T09:06:39;20.10;99.90
11848;DHT22;5983;49.966;8.052;2022-09-09T09:09:22;20.10;99.90
11848;DHT22;5983;49.966;8.052;2022-09-09T09:11:57;20.10;99.90
11848;DHT22;5983;49.966;8.052;2022-09-09T09:14:29;20.00;99.90
11848;DHT22;5983;49.966;8.052;2022-09-09T09:17:01;20.00;99.90
11848;DHT22;5983;49.966;8.052;2022-09-09T09:19:31;20.00;99.90
11848;DHT22;5983;49.966;8.052;2022-09-09T09:22:06;20.00;99.90
11848;DHT22;5983;49.966;8.052;2022-09-09T09:24:47;20.10;99.90
11848;DHT22;5983;49.966;8.052;2022-09-09T09:27:25;20.10;99.90
11848;DHT22;5983;49.966;8.052;2022-09-09T09:30:01;20.40;99.90
11848;DHT22;5983;49.966;8.052;2022-09-09T09:32:34;20.60;99.90
11848;DHT22;5983;49.966;8.052;2022-09-09T09:35:09;20.70;99.90
11848;DHT22;5983;49.966;8.052;2022-09-09T09:37:40;20.80;99.90
11848;DHT22;5983;49.966;8.052;2022-09-09T09:40:10;21.00;99.90
11848;DHT22;5983;49.966;8.052;2022-09-09T09:42:38;21.20;99.90
11848;DHT22;5983;49.966;8.052;2022-09-09T09:45:26;21.40;99.90
11848;DHT22;5983;49.966;8.052;2022-09-09T09:48:00;21.90;99.90
11848;DHT22;5983;49.966;8.052;2022-09-09T09:50:30;22.40;99.90
11848;DHT22;5983;49.966;8.052;2022-09-09T09:52:59;22.50;99.90
11848;DHT22;5983;49.966;8.052;2022-09-09T09:55:30;22.50;99.90
11848;DHT22;5983;49.966;8.052;2022-09-09T09:58:03;22.40;99.90
11848;DHT22;5983;49.966;8.052;2022-09-09T10:00:33;22.40;99.90
11848;DHT22;5983;49.966;8.052;2022-09-09T10:03:01;22.50;99.90
11848;DHT22;5983;49.966;8.052;2022-09-09T10:05:29;22.50;99.90
11848;DHT22;5983;49.966;8.052;2022-09-09T10:08:05;22.50;99.90
11848;DHT22;5983;49.966;8.052;2022-09-09T10:10:55;22.70;99.90
11848;DHT22;5983;49.966;8.052;2022-09-09T10:13:39;23.00;99.90
11848;DHT22;5983;49.966;8.052;2022-09-09T10:16:25;23.20;99.90
11848;DHT22;5983;49.966;8.052;2022-09-09T10:19:09;23.40;99.90
11848;DHT22;5983;49.966;8.052;2022-09-09T10:21:59;23.50;99.90
11848;DHT22;5983;49.966;8.052;2022-09-09T10:28:25;23.70;99.90
11848;DHT22;5983;49.966;8.052;2022-09-09T10:31:07;23.70;99.90
11848;DHT22;5983;49.966;8.052;2022-09-09T10:33:50;23.60;99.90
11848;DHT22;5983;49.966;8.052;2022-09-09T10:36:24;23.80;99.90
11848;DHT22;5983;49.966;8.052;2022-09-09T10:38:58;24.00;99.90
11848;DHT22;5983;49.966;8.052;2022-09-09T10:41:42;24.10;99.90
11848;DHT22;5983;49.966;8.052;2022-09-09T10:44:29;24.30;99.90
11848;DHT22;5983;49.966;8.052;2022-09-09T10:47:20;24.50;99.90
11848;DHT22;5983;49.966;8.052;2022-09-09T10:50:13;24.80;99.90
11848;DHT22;5983;49.966;8.052;2022-09-09T10:52:57;25.00;99.90
11848;DHT22;5983;49.966;8.052;2022-09-09T10:55:35;24.90;99.90
11848;DHT22;5983;49.966;8.052;2022-09-09T10:58:09;25.00;99.90
11848;DHT22;5983;49.966;8.052;2022-09-09T11:00:42;24.90;99.90
11848;DHT22;5983;49.966;8.052;2022-09-09T11:03:18;25.00;99.90
11848;DHT22;5983;49.966;8.052;2022-09-09T11:05:51;24.60;99.90
11848;DHT22;5983;49.966;8.052;2022-09-09T11:08:25;24.50;99.90
11848;DHT22;5983;49.966;8.052;2022-09-09T11:11:00;24.50;99.90
11848;DHT22;5983;49.966;8.052;2022-09-09T11:13:36;24.50;99.90
11848;DHT22;5983;49.966;8.052;2022-09-09T11:16:19;24.70;99.90
11848;DHT22;5983;49.966;8.052;2022-09-09T11:18:59;24.50;99.90
11848;DHT22;5983;49.966;8.052;2022-09-09T11:21:35;24.30;99.90
11848;DHT22;5983;49.966;8.052;2022-09-09T11:24:11;24.00;99.90
11848;DHT22;5983;49.966;8.052;2022-09-09T11:26:46;23.80;99.90
11848;DHT22;5983;49.966;8.052;2022-09-09T11:33:07;23.20;99.90
11848;DHT22;5983;49.966;8.052;2022-09-09T11:36:05;22.90;99.90
11848;DHT22;5983;49.966;8.052;2022-09-09T11:39:22;22.70;99.90
11848;DHT22;5983;49.966;8.052;2022-09-09T11:42:07;22.50;99.90
11848;DHT22;5983;49.966;8.052;2022-09-09T11:44:34;22.30;99.90
11848;DHT22;5983;49.966;8.052;2022-09-09T11:47:03;22.20;99.90
11848;DHT22;5983;49.966;8.052;2022-09-09T11:49:40;21.90;99.90
11848;DHT22;5983;49.966;8.052;2022-09-09T11:52:12;21.70;99.90
11848;DHT22;5983;49.966;8.052;2022-09-09T11:54:49;21.60;99.90
11848;DHT22;5983;49.966;8.052;2022-09-09T11:57:25;21.50;99.90
11848;DHT22;5983;49.966;8.052;2022-09-09T11:59:57;21.40;99.90
11848;DHT22;5983;49.966;8.052;2022-09-09T12:02:26;21.40;99.90
11848;DHT22;5983;49.966;8.052;2022-09-09T12:04:59;21.20;99.90
11848;DHT22;5983;49.966;8.052;2022-09-09T12:07:36;21.10;99.90
11848;DHT22;5983;49.966;8.052;2022-09-09T12:10:22;21.00;99.90
11848;DHT22;5983;49.966;8.052;2022-09-09T12:12:51;20.90;99.90
11848;DHT22;5983;49.966;8.052;2022-09-09T12:15:22;20.80;99.90
11848;DHT22;5983;49.966;8.052;2022-09-09T12:17:55;20.70;99.90
11848;DHT22;5983;49.966;8.052;2022-09-09T12:20:30;20.60;99.90
11848;DHT22;5983;49.966;8.052;2022-09-09T12:23:18;20.50;99.90
11848;DHT22;5983;49.966;8.052;2022-09-09T12:26:00;20.50;99.90
11848;DHT22;5983;49.966;8.052;2022-09-09T12:28:42;20.70;99.90
11848;DHT22;5983;49.966;8.052;2022-09-09T12:31:24;21.10;99.90
11848;DHT22;5983;49.966;8.052;2022-09-09T12:34:06;21.70;99.90
11848;DHT22;5983;49.966;8.052;2022-09-09T12:36:37;22.10;99.90
11848;DHT22;5983;49.966;8.052;2022-09-09T12:39:15;22.40;99.90
11848;DHT22;5983;49.966;8.052;2022-09-09T12:41:53;22.70;99.90
11848;DHT22;5983;49.966;8.052;2022-09-09T12:44:22;22.80;99.90
11848;DHT22;5983;49.966;8.052;2022-09-09T12:46:51;22.70;99.90
11848;DHT22;5983;49.966;8.052;2022-09-09T12:49:28;22.70;99.90
11848;DHT22;5983;49.966;8.052;2022-09-09T12:52:03;22.90;99.90
11848;DHT22;5983;49.966;8.052;2022-09-09T12:54:44;23.00;99.90
11848;DHT22;5983;49.966;8.052;2022-09-09T12:57:33;23.20;99.90
11848;DHT22;5983;49.966;8.052;2022-09-09T13:00:15;23.50;99.90
11848;DHT22;5983;49.966;8.052;2022-09-09T13:02:49;23.60;99.90
11848;DHT22;5983;49.966;8.052;2022-09-09T13:05:21;23.80;99.90
11848;DHT22;5983;49.966;8.052;2022-09-09T13:07:50;23.80;99.90
11848;DHT22;5983;49.966;8.052;2022-09-09T13:10:23;23.70;99.90
11848;DHT22;5983;49.966;8.052;2022-09-09T13:12:54;23.50;99.90
11848;DHT22;5983;49.966;8.052;2022-09-09T13:15:26;23.40;99.90
11848;DHT22;5983;49.966;8.052;2022-09-09T13:17:56;23.50;99.90
11848;DHT22;5983;49.966;8.052;2022-09-09T13:20:27;23.50;99.90
11848;DHT22;5983;49.966;8.052;2022-09-09T13:22:57;23.50;99.90
11848;DHT22;5983;49.966;8.052;2022-09-09T13:25:25;23.40;99.90
11848;DHT22;5983;49.966;8.052;2022-09-09T13:28:00;23.00;99.90
11848;DHT22;5983;49.966;8.052;2022-09-09T13:30:30;22.60;99.90
11848;DHT22;5983;49.966;8.052;2022-09-09T13:33:04;22.20;99.90
11848;DHT22;5983;49.966;8.052;2022-09-09T13:35:33;21.90;99.90
11848;DHT22;5983;49.966;8.052;2022-09-09T13:38:09;21.70;99.90
11848;DHT22;5983;49.966;8.052;2022-09-09T13:40:37;21.40;99.90
11848;DHT22;5983;49.966;8.052;2022-09-09T13:43:16;21.30;99.90
11848;DHT22;5983;49.966;8.052;2022-09-09T13:45:53;21.10;99.90
11848;DHT22;5983;49.966;8.052;2022-09-09T13:48:25;21.00;99.90
11848;DHT22;5983;49.966;8.052;2022-09-09T13:50:57;20.90;99.90
11848;DHT22;5983;49.966;8.052;2022-09-09T13:53:25;20.70;99.90
11848;DHT22;5983;49.966;8.052;2022-09-09T13:55:53;20.60;99.90
11848;DHT22;5983;49.966;8.052;2022-09-09T13:58:24;20.50;99.90
11848;DHT22;5983;49.966;8.052;2022-09-09T14:00:52;20.40;99.90
11848;DHT22;5983;49.966;8.052;2022-09-09T14:03:25;20.20;99.90
11848;DHT22;5983;49.966;8.052;2022-09-09T14:05:53;20.20;99.90
11848;DHT22;5983;49.966;8.052;2022-09-09T14:08:25;20.10;99.90
11848;DHT22;5983;49.966;8.052;2022-09-09T14:11:02;20.00;99.90
11848;DHT22;5983;49.966;8.052;2022-09-09T14:13:34;20.00;99.90
11848;DHT22;5983;49.966;8.052;2022-09-09T14:16:08;20.00;99.90
11848;DHT22;5983;49.966;8.052;2022-09-09T14:18:39;20.00;99.90
11848;DHT22;5983;49.966;8.052;2022-09-09T14:21:06;20.10;99.90
11848;DHT22;5983;49.966;8.052;2022-09-09T14:26:24;20.10;99.90
11848;DHT22;5983;49.966;8.052;2022-09-09T14:28:56;20.10;99.90
11848;DHT22;5983;49.966;8.052;2022-09-09T14:31:30;20.10;99.90
11848;DHT22;5983;49.966;8.052;2022-09-09T14:33:58;20.10;99.90
11848;DHT22;5983;49.966;8.052;2022-09-09T14:36:26;20.00;99.90
11848;DHT22;5983;49.966;8.052;2022-09-09T14:38:53;20.10;99.90
11848;DHT22;5983;49.966;8.052;2022-09-09T14:41:20;20.20;99.90
11848;DHT22;5983;49.966;8.052;2022-09-09T14:43:48;20.40;99.90
11848;DHT22;5983;49.966;8.052;2022-09-09T14:46:19;20.50;99.90
11848;DHT22;5983;49.966;8.052;2022-09-09T14:48:47;20.60;99.90
11848;DHT22;5983;49.966;8.052;2022-09-09T14:51:18;20.70;99.90
11848;DHT22;5983;49.966;8.052;2022-09-09T14:53:50;20.80;99.90
11848;DHT22;5983;49.966;8.052;2022-09-09T14:56:21;20.80;99.90
11848;DHT22;5983;49.966;8.052;2022-09-09T14:58:52;20.80;99.90
11848;DHT22;5983;49.966;8.052;2022-09-09T15:01:22;20.80;99.90
11848;DHT22;5983;49.966;8.052;2022-09-09T15:03:53;20.80;99.90
11848;DHT22;5983;49.966;8.052;2022-09-09T15:06:24;20.90;99.90
11848;DHT22;5983;49.966;8.052;2022-09-09T15:08:53;20.90;99.90
11848;DHT22;5983;49.966;8.052;2022-09-09T15:11:25;20.80;99.90
11848;DHT22;5983;49.966;8.052;2022-09-09T15:13:54;20.80;99.90
11848;DHT22;5983;49.966;8.052;2022-09-09T15:16:26;20.80;99.90
11848;DHT22;5983;49.966;8.052;2022-09-09T15:18:55;20.80;99.90
11848;DHT22;5983;49.966;8.052;2022-09-09T15:21:25;20.70;99.90
11848;DHT22;5983;49.966;8.052;2022-09-09T15:23:54;20.60;99.90
11848;DHT22;5983;49.966;8.052;2022-09-09T15:26:22;20.60;99.90
11848;DHT22;5983;49.966;8.052;2022-09-09T15:28:50;20.60;99.90
11848;DHT22;5983;49.966;8.052;2022-09-09T15:31:19;20.60;99.90
11848;DHT22;5983;49.966;8.052;2022-09-09T15:33:49;20.60;99.90
11848;DHT22;5983;49.966;8.052;2022-09-09T15:36:19;20.60;99.90
11848;DHT22;5983;49.966;8.052;2022-09-09T15:38:48;20.50;99.90
11848;DHT22;5983;49.966;8.052;2022-09-09T15:41:16;20.50;99.90
11848;DHT22;5983;49.966;8.052;2022-09-09T15:43:44;20.40;99.90
11848;DHT22;5983;49.966;8.052;2022-09-09T15:46:24;20.30;99.90
11848;DHT22;5983;49.966;8.052;2022-09-09T15:48:55;20.30;99.90
11848;DHT22;5983;49.966;8.052;2022-09-09T15:51:25;20.30;99.90
11848;DHT22;5983;49.966;8.052;2022-09-09T15:53:56;20.20;99.90
11848;DHT22;5983;49.966;8.052;2022-09-09T15:56:24;20.10;99.90
11848;DHT22;5983;49.966;8.052;2022-09-09T15:58:53;20.10;99.90
11848;DHT22;5983;49.966;8.052;2022-09-09T16:01:21;20.00;99.90
11848;DHT22;5983;49.966;8.052;2022-09-09T16:03:48;20.00;99.90
11848;DHT22;5983;49.966;8.052;2022-09-09T16:06:18;20.10;99.90
11848;DHT22;5983;49.966;8.052;2022-09-09T16:08:48;20.10;99.90
11848;DHT22;5983;49.966;8.052;2022-09-09T16:11:18;20.10;99.90
11848;DHT22;5983;49.966;8.052;2022-09-09T16:13:48;20.00;99.90
11848;DHT22;5983;49.966;8.052;2022-09-09T16:16:17;20.00;99.90
11848;DHT22;5983;49.966;8.052;2022-09-09T16:18:49;19.90;99.90
11848;DHT22;5983;49.966;8.052;2022-09-09T16:21:20;19.90;99.90
11848;DHT22;5983;49.966;8.052;2022-09-09T16:23:49;19.90;99.90
11848;DHT22;5983;49.966;8.052;2022-09-09T16:26:19;19.80;99.90
11848;DHT22;5983;49.966;8.052;2022-09-09T16:28:47;19.70;99.90
11848;DHT22;5983;49.966;8.052;2022-09-09T16:31:16;19.70;99.90